Latest Coastal Weather Observations for Hobart Airport

IDT60701

Issued at 1:05 am EDT Tuesday 25 November 2014 (issued every 10 minutes, with the page automatically refreshed every 10 minutes)

About coastal observations | Map of coastal stations | Coastal observations for TAS | Marine services | Other Formats
Station Details ID: 094008 Name: HOBART AIRPORT Lat: -42.83 Lon: 147.50 Height: 4.0 m
Data from the previous 72 hours. | See also: Recent months at Hobart Airport
Date/Time
EDT
Temp

°C
Wind Pressure Rain
since 9am
mm
Weather Cloud Vis
km
Sea
Height
m
Swell
Dir
 
Speed
knots
Gust
knots
hPa Trend Height
m
Period
s
Dir
25/01:00am 10.9 NNW 11 16 1001.7 - 1.6 - Mostly clear 10 - - - -
25/12:30am 11.8 NW 14 20 1002.2 - 1.6 - Mostly clear 10 - - - -
25/12:00am 11.6 NW 15 20 1002.2 F 1.6 Fine Mostly clear 10 - - - -
 
Date/Time
EDT
Temp

°C
Wind Pressure Rain
since 9am
mm
Weather Cloud Vis
km
Sea
Height
m
Swell
Dir
 
Speed
knots
Gust
knots
hPa Trend Height
m
Period
s
Dir
24/11:30pm 11.7 NNW 9 14 1002.6 - 1.6 - Mostly clear 10 - - - -
24/11:00pm 11.9 NW 11 16 1002.8 - 1.6 - Mostly clear 10 - - - -
24/10:30pm 12.3 NW 11 15 1003.1 - 1.6 - Mostly clear 10 - - - -
24/10:00pm 13.0 WNW 11 17 1003.0 - 1.6 - Mostly clear 10 - - - -
24/09:30pm 13.4 WNW 17 23 1002.7 - 1.6 - Mostly clear 10 - - - -
24/09:06pm 13.8 WNW 15 27 1002.3 - 1.6 - Mostly clear 10 - - - -
24/09:00pm 13.8 WNW 15 20 1002.3 F 1.6 Fine Mostly cloudy 40 - - - -
24/08:30pm 14.4 W 11 18 1002.1 - 1.6 - Mostly clear 10 - - - -
24/08:00pm 14.6 WNW 8 12 1001.9 - 1.6 - Mostly clear 10 - - - -
24/07:30pm 14.5 WNW 8 11 1001.6 - 1.6 - Mostly clear 10 - - - -
24/07:00pm 14.3 NW 5 7 1001.6 - 1.6 - Mostly clear 10 - - - -
24/06:30pm 14.3 N 5 5 1001.5 - 1.6 - Mostly clear 10 - - - -
24/06:00pm 14.3 NNE 5 7 1001.7 F 1.6 Rain Mostly cloudy 15 - - - -
24/05:30pm 14.3 NE 3 5 1002.0 - 1.4 Rain Mostly clear 10 - - - -
24/05:00pm 14.3 CALM 0 0 1002.4 - 1.4 - Mostly clear 10 - - - -
24/04:30pm 14.5 SSW 6 8 1002.8 - 1.2 Rain Mostly clear 8 - - - -
24/04:00pm 15.3 SE 6 7 1002.9 - 0.8 - Mostly cloudy 10 - - - -
24/03:30pm 16.0 SE 3 5 1003.2 - 0.8 - Mostly clear 10 - - - -
24/03:00pm 16.2 NW 4 5 1003.3 F 0.8 Fine Mostly cloudy 30 - - - -
24/02:30pm 15.9 N 3 5 1004.2 - 0.8 - Mostly clear 10 - - - -
24/02:00pm 15.8 N 4 5 1005.0 - 0.8 - Mostly clear 10 - - - -
24/01:30pm 15.3 ENE 5 6 1005.5 - 0.8 Rain Mostly clear 10 - - - -
24/01:00pm 14.7 NNW 5 8 1005.9 - 0.8 - Mostly clear 10 - - - -
24/12:30pm 14.5 NW 4 5 1006.3 - 0.8 - Mostly clear 10 - - - -
24/12:00pm 13.9 NW 5 6 1006.8 F 0.8 Rain Mostly cloudy 20 - - - -
24/11:30am 13.6 N 4 7 1007.3 - 0.8 - Partly cloudy 10 - - - -
24/11:00am 13.4 NNW 6 9 1008.2 - 0.8 - Mostly clear 10 - - - -
24/10:30am 14.0 NNW 7 10 1008.5 - 0.0 Rain Mostly clear 10 - - - -
24/10:00am 14.4 NW 7 8 1008.3 - 0.0 - Mostly clear 10 - - - -
24/09:30am 14.2 NW 9 14 1009.0 - 0.0 - Partly cloudy 10 - - - -
24/09:00am 14.3 N 7 11 1008.1 F 0.2 Rain Mostly cloudy 20 - - - -
24/08:30am 13.6 NNW 8 11 1009.0 - 0.2 - - 10 - - - -
24/08:00am 13.2 N 5 6 1009.0 - 0.2 - Partly cloudy 10 - - - -
24/07:30am 12.1 NW 5 8 1008.9 - 0.2 - Mostly clear 10 - - - -
24/07:00am 11.4 WNW 6 9 1008.9 - 0.2 - Mostly clear 10 - - - -
24/06:30am 11.1 NW 9 10 1009.0 - 0.2 - Mostly clear 10 - - - -
24/06:00am 10.9 NW 9 11 1008.8 F 0.2 Haze Mostly cloudy 30 - - - -
24/05:30am 9.9 NW 9 11 1009.2 - 0.2 - Mostly clear 10 - - - -
24/05:00am 10.4 NNW 6 9 1009.5 - 0.2 - Mostly clear 10 - - - -
24/04:30am 10.6 NNW 7 9 1009.6 - 0.2 - Mostly clear 10 - - - -
24/04:00am 9.8 NW 9 10 1009.6 - 0.2 - Mostly clear 10 - - - -
24/03:30am 10.8 NW 8 9 1009.8 - 0.2 - Mostly clear 10 - - - -
24/03:00am 12.0 NW 8 10 1010.1 F 0.2 Haze Partly cloudy 20 - - - -
24/02:30am 12.5 NNW 5 7 1010.1 - 0.2 - Mostly clear 10 - - - -
24/02:00am 12.7 CALM 0 0 1010.3 - 0.2 - Mostly clear 10 - - - -
24/01:30am 12.6 CALM 0 0 1010.6 - 0.2 - Mostly clear 10 - - - -
24/01:00am 12.9 N 5 5 1011.0 - 0.2 - Mostly clear 10 - - - -
24/12:30am 13.7 CALM 0 0 1011.3 - 0.2 - Mostly clear 10 - - - -
24/12:00am 13.6 ENE 4 4 1011.3 F 0.2 Haze Mostly cloudy 20 - - - -
 
Date/Time
EDT
Temp

°C
Wind Pressure Rain
since 9am
mm
Weather Cloud Vis
km
Sea
Height
m
Swell
Dir
 
Speed
knots
Gust
knots
hPa Trend Height
m
Period
s
Dir
23/11:30pm 14.8 NNE 3 4 1011.7 - 0.2 - Mostly clear 10 - - - -
23/11:00pm 15.9 N 4 5 1012.0 - 0.2 - Partly cloudy 10 - - - -
23/10:30pm 16.2 N 5 7 1012.3 - 0.2 - Mostly clear 10 - - - -
23/10:00pm 16.3 NE 7 10 1012.2 - 0.2 - Mostly clear 10 - - - -
23/09:30pm 16.3 NE 8 10 1011.8 - 0.2 - Mostly clear 10 - - - -
23/09:00pm 16.3 ENE 6 8 1011.6 R 0.2 Haze Mostly cloudy 20 - - - -
23/08:30pm 16.6 E 6 8 1011.3 - 0.2 - Mostly clear 10 - - - -
23/08:00pm 16.7 ENE 9 13 1011.1 - 0.2 - Mostly clear 10 - - - -
23/07:30pm 17.0 NE 10 15 1010.6 - 0.2 - Mostly clear 10 - - - -
23/07:00pm 17.2 NE 14 18 1010.1 - 0.2 - Mostly clear 10 - - - -
23/06:30pm 17.8 E 10 16 1009.6 - 0.2 - Mostly clear 10 - - - -
23/06:00pm 18.2 E 11 17 1009.1 R 0.2 Haze Mostly cloudy 25 - - - -
23/05:30pm 18.1 ESE 11 15 1008.7 - 0.2 - Mostly clear 10 - - - -
23/05:00pm 18.3 ESE 12 17 1008.6 - 0.2 - Mostly clear 10 - - - -
23/04:30pm 19.4 E 10 17 1008.3 - 0.2 - Mostly clear 10 - - - -
23/04:00pm 20.2 ENE 11 16 1008.2 - 0.2 - Mostly clear 10 - - - -
23/03:30pm 20.9 E 10 18 1008.0 - 0.2 - Mostly clear 10 - - - -
23/03:00pm 21.5 SE 12 17 1008.2 R 0.2 Fine Mostly clear 30 - - - -
23/02:30pm 20.5 SSE 14 18 1008.2 - 0.2 - - 10 - - - -
23/02:00pm 21.1 SSE 13 16 1008.3 - 0.2 - - 10 - - - -
23/01:30pm 21.3 SSE 11 14 1008.4 - 0.2 - - 10 - - - -
23/01:00pm 20.9 SSE 10 15 1008.3 - 0.2 - - 10 - - - -
23/12:30pm 21.5 W 6 9 1008.5 - 0.2 - - 10 - - - -
23/12:00pm 21.1 NNW 9 12 1008.6 R 0.2 Fine Mostly clear 40 - - - -
23/11:30am 21.3 NW 12 15 1008.6 - 0.2 - - 10 - - - -
23/11:00am 21.1 WNW 13 18 1008.4 - 0.2 - - 10 - - - -
23/10:30am 20.1 WNW 13 18 1008.5 - 0.2 - - 10 - - - -
23/10:00am 19.1 WNW 16 20 1008.2 - 0.2 - - 10 - - - -
23/09:30am 18.8 WNW 14 21 1008.1 - 0.0 - - 10 - - - -
23/09:00am 18.0 WNW 13 20 1007.9 R 0.2 Fine Mostly clear 40 - - - -
23/08:30am 18.2 W 13 19 1007.7 - 0.2 - Mostly clear 10 - - - -
23/08:00am 17.3 W 13 17 1007.6 - 0.2 - Mostly clear 10 - - - -
23/07:30am 16.7 W 11 15 1007.1 - 0.2 - Mostly clear 10 - - - -
23/07:00am 15.4 SSW 4 6 1006.7 - 0.2 - Mostly clear 10 - - - -
23/06:30am 13.1 W 6 8 1006.1 - 0.2 - Mostly clear 10 - - - -
23/06:00am 13.1 W 7 8 1005.7 R 0.2 Fine Partly cloudy 30 - - - -
23/05:30am 12.4 NNW 7 9 1004.8 - 0.2 - Mostly clear 10 - - - -
23/05:00am 9.9 N 1 4 1004.4 - 0.2 - Mostly clear 10 - - - -
23/04:30am 10.3 NNW 4 5 1004.2 - 0.2 - - 10 - - - -
23/04:00am 10.4 NNE 4 6 1004.0 - 0.2 - - 10 - - - -
23/03:30am 12.8 WSW 5 7 1003.6 - 0.2 - - 10 - - - -
23/03:00am 11.8 CALM 0 4 1003.9 R 0.2 Fine Mostly clear 40 - - - -
23/02:30am 13.2 SW 4 5 1003.9 - 0.2 - Partly cloudy 10 - - - -
23/02:00am 13.9 W 5 7 1003.4 - 0.2 - - 10 - - - -
23/01:30am 13.4 W 5 6 1003.3 - 0.2 - - 10 - - - -
23/01:00am 13.0 NW 9 11 1003.1 - 0.2 - - 10 - - - -
23/12:30am 14.0 NW 5 7 1003.4 - 0.2 - - 10 - - - -
23/12:00am 13.4 NW 6 7 1003.3 F 0.2 Fine Mostly clear 40 - - - -
 
Date/Time
EDT
Temp

°C
Wind Pressure Rain
since 9am
mm
Weather Cloud Vis
km
Sea
Height
m
Swell
Dir
 
Speed
knots
Gust
knots
hPa Trend Height
m
Period
s
Dir
22/11:30pm 13.9 CALM 0 3 1003.6 - 0.2 - - 10 - - - -
22/11:00pm 13.8 E 3 4 1003.7 - 0.2 - Partly cloudy 10 - - - -
22/10:30pm 14.8 SSW 4 5 1004.0 - 0.2 - Mostly clear 10 - - - -
22/10:00pm 14.7 SE 3 7 1003.9 - 0.2 - Partly cloudy 10 - - - -
22/09:30pm 15.0 NE 2 4 1004.0 - 0.2 - Partly cloudy 10 - - - -
22/09:00pm 16.2 SSE 6 7 1003.7 F 0.2 Fine Mostly cloudy 40 - - - -
22/08:30pm 16.9 SSE 6 8 1004.0 - 0.2 - Mostly clear 10 - - - -
22/08:00pm 17.4 SSE 6 8 1003.9 - 0.2 - Mostly clear 10 - - - -
22/07:30pm 17.8 SSE 4 5 1003.7 - 0.2 - Mostly clear 10 - - - -
22/07:00pm 17.0 SSE 6 7 1003.4 - 0.2 - Partly cloudy 10 - - - -
22/06:30pm 17.0 SSE 10 14 1003.0 - 0.2 - Partly cloudy 10 - - - -
22/06:00pm 17.9 SSE 11 14 1003.0 F 0.2 Distant precip. Mostly cloudy 40 - - - -
22/05:30pm 19.8 SE 7 9 1003.2 - 0.2 - Partly cloudy 10 - - - -
22/05:00pm 21.6 SW 3 6 1003.1 - 0.2 - Cloudy 10 - - - -
22/04:30pm 21.8 W 8 9 1003.2 - 0.2 - Cloudy 10 - - - -
22/04:00pm 22.0 NNE 4 6 1003.0 - 0.2 - Cloudy 10 - - - -
22/03:30pm 22.1 NNE 8 13 1003.4 - 0.2 - Partly cloudy 10 - - - -
22/03:00pm 22.8 N 5 9 1003.6 F 0.2 Distant precip. Mostly cloudy 40 - - - -
22/02:30pm 22.8 WNW 9 11 1004.1 - 0.2 - Cloudy 10 - - - -
22/02:00pm 23.2 WNW 19 27 1004.3 - 0.2 - Partly cloudy 10 - - - -
22/01:49pm 24.9 WNW 15 26 1004.4 - 0.2 - Partly cloudy 10 - - - -
22/01:30pm 23.9 WNW 10 14 1004.8 - 0.2 - Partly cloudy 10 - - - -
22/01:00pm 21.6 NW 12 15 1005.4 - 0.2 - Partly cloudy 10 - - - -
22/12:30pm 21.5 WNW 15 25 1005.5 - 0.2 - Cloudy 10 - - - -
22/12:20pm 21.6 WNW 15 27 1005.5 - 0.2 - Partly cloudy 10 - - - -
22/12:00pm 24.0 NW 12 23 1005.3 F 0.2 Distant precip. Mostly cloudy 40 - - - -
22/11:30am 22.0 NW 12 17 1005.5 - 0.0 - Partly cloudy 10 - - - -
22/11:00am 21.1 N 8 12 1005.9 - 0.0 - Mostly clear 10 - - - -
22/10:30am 17.9 N 9 16 1006.0 - 0.0 - - 10 - - - -
22/10:00am 17.4 N 11 17 1006.4 - 0.0 - - 10 - - - -
22/09:30am 15.3 NNW 9 16 1007.2 - 0.0 - - 10 - - - -
22/09:00am 14.4 N 7 12 1007.6 R 2.2 Showers Mostly cloudy 30 - - - -
22/08:30am 13.5 NNW 10 16 1007.6 - 2.2 - - 10 - - - -
22/08:00am 12.9 NNW 11 18 1007.8 - 2.2 - - 10 - - - -
22/07:30am 12.4 NNW 8 13 1007.5 - 2.2 - Partly cloudy 10 - - - -
22/07:00am 11.5 NNW 7 12 1007.3 - 2.2 - - 10 - - - -
22/06:30am 11.2 NNW 7 9 1007.2 - 2.2 - - 10 - - - -
22/06:00am 10.2 N 9 12 1007.0 F 2.2 Haze Partly cloudy 30 - - - -
22/05:30am 9.9 NNW 12 15 1007.0 - 2.2 - - 10 - - - -
22/05:00am 9.8 NW 12 14 1007.2 - 2.2 - - 10 - - - -
22/04:30am 10.4 N 8 13 1006.9 - 2.2 - - 10 - - - -
22/04:00am 10.0 N 10 15 1007.0 - 2.2 - - 10 - - - -
22/03:30am 8.8 NNW 7 10 1007.4 - 2.2 - - 10 - - - -
22/03:00am 8.2 NNW 8 10 1007.6 F 2.2 Haze Mostly clear 30 - - - -
22/02:30am 9.2 NW 7 9 1008.0 - 2.2 - Partly cloudy 10 - - - -
22/02:00am 9.6 NW 8 9 1008.3 - 2.2 - Cloudy 10 - - - -
22/01:30am 8.9 NW 9 10 1008.8 - 2.2 - Partly cloudy 10 - - - -

Other Formats:

Comma delimited format used in spreadsheet applications
http://www.bom.gov.au/fwo/IDT60701/IDT60701.94975.axf

JavaScript Object Notation format (JSON) in row-major order
http://www.bom.gov.au/fwo/IDT60701/IDT60701.94975.json